< < Back
Terminal Aerodrome Forecast


Current Version              Previous Versions:   1  2  3  4  5  6  7  8  9  

Terminal Aerodrome Forecast

462
FTUS42 KJAX 270520
TAFJAX
TAF
KJAX 270520Z 2706/2806 VRB04KT P6SM VCSH SCT015 BKN035 BKN060
     FM270900 VRB02KT 6SM BR SCT005 SCT015
     FM271200 12004KT P6SM SCT015 SCT250
     FM271600 10010KT P6SM SCT035 SCT250=

Latest METAR

570
SAUS80 KWBC 271900
MTRJAX
METAR KJAX 271856Z 07010KT 10SM FEW045 BKN250 29/18 A3019 RMK AO2 SLP224
T02890178


USA.gov is the U.S. government's official web portal to all federal, state and local government web resources and services.